createdAt,value
2023-04-15T00:00:17.707Z,1004.232624
2023-04-15T00:05:17.552Z,1004.169528
2023-04-15T00:10:17.813Z,1004.133208
2023-04-15T00:15:17.582Z,1004.120241
2023-04-15T00:20:17.617Z,1004.077538
2023-04-15T00:25:17.517Z,1004.051256
2023-04-15T00:30:17.520Z,1004.047281
2023-04-15T00:35:17.496Z,1004.071949
2023-04-15T00:40:17.501Z,1003.989823
2023-04-15T00:45:17.601Z,1003.940612
2023-04-15T00:50:17.517Z,1003.901660
2023-04-15T00:55:17.883Z,1003.860622
2023-04-15T01:00:17.632Z,1003.779365
2023-04-15T01:05:17.847Z,1003.773776
2023-04-15T01:10:17.611Z,1003.703350
2023-04-15T01:15:17.481Z,1003.686234
2023-04-15T01:20:17.851Z,1003.674533
2023-04-15T01:25:17.613Z,1003.621571
2023-04-15T01:30:17.414Z,1003.572409
2023-04-15T01:35:18.010Z,1003.460026
2023-04-15T01:40:17.500Z,1003.490283
2023-04-15T01:45:17.436Z,1003.486134
2023-04-15T01:50:17.603Z,1003.374671
2023-04-15T01:55:17.383Z,1003.297388
2023-04-15T02:00:17.455Z,1003.381875
2023-04-15T02:05:17.745Z,1003.377378
2023-04-15T02:10:17.469Z,1003.315126
2023-04-15T02:15:17.440Z,1003.277318
2023-04-15T02:20:17.521Z,1003.321237
2023-04-15T02:25:17.765Z,1003.211960
2023-04-15T02:30:17.484Z,1002.919128
2023-04-15T02:35:17.386Z,1002.946279
2023-04-15T02:40:17.498Z,1002.994281
2023-04-15T02:45:17.629Z,1003.093119
2023-04-15T02:50:17.393Z,1003.047013
2023-04-15T02:55:17.568Z,1003.051162
2023-04-15T03:00:17.605Z,1003.119227
2023-04-15T03:05:17.452Z,1003.057099
2023-04-15T03:10:17.413Z,1003.029550
2023-04-15T03:15:17.518Z,1003.083033
2023-04-15T03:20:17.830Z,1003.051040
2023-04-15T03:25:17.545Z,1003.055484
2023-04-15T03:30:17.939Z,1003.109141
2023-04-15T03:35:17.407Z,1003.078884
2023-04-15T03:40:17.459Z,1003.085915
2023-04-15T03:45:17.547Z,1002.934456
2023-04-15T03:50:17.846Z,1002.866391
2023-04-15T03:55:17.742Z,1002.852330
2023-04-15T04:00:17.731Z,1002.891232
2023-04-15T04:05:17.556Z,1002.943275
2023-04-15T04:10:17.381Z,1002.889791
2023-04-15T04:15:17.486Z,1002.809151
2023-04-15T04:20:17.612Z,1002.816831
2023-04-15T04:25:17.584Z,1002.849796
2023-04-15T04:30:17.432Z,1002.817577
2023-04-15T04:35:17.517Z,1002.886910
2023-04-15T04:40:17.697Z,1002.941834
2023-04-15T04:45:17.551Z,1002.930308
2023-04-15T04:50:17.380Z,1002.911230
2023-04-15T04:55:17.379Z,1002.880973
2023-04-15T05:00:17.529Z,1002.900623
2023-04-15T05:05:17.341Z,1002.826100
2023-04-15T05:10:17.475Z,1002.729193
2023-04-15T05:15:17.529Z,1002.631470
2023-04-15T05:20:17.427Z,1002.735902
2023-04-15T05:25:17.351Z,1002.769613
2023-04-15T05:30:17.428Z,1002.753244
2023-04-15T05:35:17.357Z,1002.647892
2023-04-15T05:40:17.351Z,1002.681551
2023-04-15T05:45:17.452Z,1002.741544
2023-04-15T05:50:17.497Z,1002.838077
2023-04-15T05:55:17.516Z,1002.967576
2023-04-15T06:00:17.369Z,1002.905274
2023-04-15T06:05:17.681Z,1002.913103
2023-04-15T06:10:17.338Z,1002.894425
2023-04-15T06:15:17.404Z,1002.898974
2023-04-15T06:20:17.599Z,1002.885486
2023-04-15T06:25:17.908Z,1002.910606
2023-04-15T06:30:17.310Z,1002.990943
2023-04-15T06:35:17.538Z,1003.134208
2023-04-15T06:40:17.545Z,1003.156219
2023-04-15T06:45:17.460Z,1003.176790
2023-04-15T06:50:17.455Z,1003.145601
2023-04-15T06:55:17.529Z,1003.211291
2023-04-15T07:00:17.515Z,1003.236239
2023-04-15T07:05:17.446Z,1003.286830
2023-04-15T07:10:17.383Z,1003.286539
2023-04-15T07:15:17.389Z,1003.264117
2023-04-15T07:20:17.456Z,1003.333557
2023-04-15T07:25:17.345Z,1003.331770
2023-04-15T07:30:17.461Z,1003.337346
2023-04-15T07:35:17.351Z,1003.392164
2023-04-15T07:40:17.408Z,1003.381733
2023-04-15T07:45:17.441Z,1003.313897
2023-04-15T07:50:17.342Z,1003.304272
2023-04-15T07:55:17.343Z,1003.342481
2023-04-15T08:00:17.499Z,1003.439297
2023-04-15T08:05:17.521Z,1003.471858
2023-04-15T08:10:17.309Z,1003.565737
2023-04-15T08:15:17.592Z,1003.552053
2023-04-15T08:20:17.560Z,1003.610116
2023-04-15T08:25:17.617Z,1003.547706
2023-04-15T08:30:17.831Z,1003.611742
2023-04-15T08:35:18.129Z,1003.659354
2023-04-15T08:40:17.336Z,1003.699806
2023-04-15T08:45:17.331Z,1003.703571
2023-04-15T08:50:17.281Z,1003.683980
2023-04-15T08:55:17.360Z,1003.694754
2023-04-15T09:00:17.318Z,1003.790529
2023-04-15T09:05:17.348Z,1003.810354
2023-04-15T09:10:17.386Z,1003.838491
2023-04-15T09:15:17.393Z,1003.876514
2023-04-15T09:20:17.635Z,1003.935816
2023-04-15T09:25:17.309Z,1003.942062
2023-04-15T09:30:17.688Z,1003.964658
2023-04-15T09:35:17.758Z,1004.001426
2023-04-15T09:40:17.316Z,1004.075762
2023-04-15T09:45:18.321Z,1004.146044
2023-04-15T09:50:17.844Z,1004.200636
2023-04-15T09:55:17.381Z,1004.264568
2023-04-15T10:00:17.356Z,1004.233707
2023-04-15T10:05:17.385Z,1004.211266
2023-04-15T10:10:17.456Z,1004.208545
2023-04-15T10:15:17.303Z,1004.183775
2023-04-15T10:20:17.295Z,1004.244355
2023-04-15T10:25:17.335Z,1004.372871
2023-04-15T10:30:17.390Z,1004.454229
2023-04-15T10:35:17.307Z,1004.541247
2023-04-15T10:40:17.316Z,1004.679992
2023-04-15T10:45:17.329Z,1004.761246
2023-04-15T10:50:17.676Z,1004.778499
2023-04-15T10:55:17.792Z,1004.831149
2023-04-15T11:00:17.952Z,1004.867095
2023-04-15T11:05:17.384Z,1004.956069
2023-04-15T11:10:17.278Z,1004.935181
2023-04-15T11:15:17.659Z,1004.930618
2023-04-15T11:20:17.277Z,1005.022921
2023-04-15T11:25:17.375Z,1005.097521
2023-04-15T11:30:17.538Z,1005.167149
2023-04-15T11:35:17.359Z,1005.176856
2023-04-15T11:40:17.207Z,1005.239898
2023-04-15T11:45:17.510Z,1005.201870
2023-04-15T11:50:17.487Z,1005.266423
2023-04-15T11:55:17.264Z,1005.300957
2023-04-15T12:00:17.308Z,1005.347266
2023-04-15T12:05:17.510Z,1005.413130
2023-04-15T12:10:17.325Z,1005.456218
2023-04-15T12:15:17.324Z,1005.546801
2023-04-15T12:20:17.302Z,1005.615036
2023-04-15T12:25:17.543Z,1005.696707
2023-04-15T12:30:17.397Z,1005.764582
2023-04-15T12:35:17.330Z,1005.806632
2023-04-15T12:40:17.342Z,1005.818401
2023-04-15T12:45:17.239Z,1005.887257
2023-04-15T12:50:17.364Z,1005.942680
2023-04-15T12:55:17.371Z,1006.011889
2023-04-15T13:00:17.566Z,1006.028566
2023-04-15T13:05:17.437Z,1006.053921
2023-04-15T13:10:17.318Z,1006.116657
2023-04-15T13:15:17.776Z,1006.193041
2023-04-15T13:20:17.675Z,1006.209630
2023-04-15T13:25:17.489Z,1006.312868
2023-04-15T13:30:17.630Z,1006.416114
2023-04-15T13:35:17.274Z,1006.465560
2023-04-15T13:40:17.193Z,1006.484853
2023-04-15T13:45:17.497Z,1006.479394
2023-04-15T13:50:17.212Z,1006.563719
2023-04-15T13:55:19.654Z,1006.598272
2023-04-15T14:00:17.385Z,1006.696233
2023-04-15T14:05:17.346Z,1006.734259
2023-04-15T14:10:17.237Z,1006.688885
2023-04-15T14:15:17.181Z,1006.760544
2023-04-15T14:20:17.457Z,1006.667290
2023-04-15T14:25:30.523Z,1006.716357
2023-04-15T14:30:17.269Z,1006.935677
2023-04-15T14:35:17.181Z,1007.079710
2023-04-15T14:40:17.330Z,1007.121733
2023-04-15T14:45:17.209Z,1007.182231
2023-04-15T14:50:17.430Z,1007.199506
2023-04-15T14:55:17.208Z,1007.276084
2023-04-15T15:00:17.183Z,1007.318176
2023-04-15T15:05:17.356Z,1007.359947
2023-04-15T15:10:17.318Z,1007.440188
2023-04-15T15:15:28.604Z,1007.477901
2023-04-15T15:20:17.173Z,1007.549489
2023-04-15T15:25:17.615Z,1007.626186
2023-04-15T15:30:18.128Z,1007.715927
2023-04-15T15:35:17.853Z,1007.735210
2023-04-15T15:40:17.778Z,1007.767854
2023-04-15T15:45:17.560Z,1007.825122
2023-04-15T15:50:17.392Z,1007.910974
2023-04-15T15:55:17.391Z,1007.972855
2023-04-15T16:00:18.127Z,1008.040659
2023-04-15T16:05:17.768Z,1008.051004
2023-04-15T16:10:17.364Z,1008.071773
2023-04-15T16:15:17.317Z,1008.109317
2023-04-15T16:20:17.517Z,1008.143717
2023-04-15T16:25:17.599Z,1008.174928
2023-04-15T16:30:17.578Z,1008.187150
2023-04-15T16:35:17.347Z,1008.296830
2023-04-15T16:40:17.304Z,1008.357654
2023-04-15T16:45:17.572Z,1008.390860
2023-04-15T16:50:17.364Z,1008.437050
2023-04-15T16:55:17.238Z,1008.497985
2023-04-15T17:00:17.443Z,1008.534092
2023-04-15T17:05:17.382Z,1008.565762
2023-04-15T17:10:17.622Z,1008.666936
2023-04-15T17:15:17.684Z,1008.760702
2023-04-15T17:20:17.394Z,1008.882649
2023-04-15T17:25:17.488Z,1008.971688
2023-04-15T17:30:17.526Z,1009.034691
2023-04-15T17:35:20.044Z,1009.115899
2023-04-15T17:40:19.958Z,1009.188539
2023-04-15T17:45:19.868Z,1009.242996
2023-04-15T17:50:19.812Z,1009.335253
2023-04-15T17:55:17.378Z,1009.422884
2023-04-15T18:00:17.381Z,1009.471058
2023-04-15T18:05:17.526Z,1009.561847
2023-04-15T18:10:17.729Z,1009.665935
2023-04-15T18:15:17.683Z,1009.805352
2023-04-15T18:20:17.787Z,1009.963616
2023-04-15T18:25:17.390Z,1010.092752
2023-04-15T18:30:18.050Z,1010.174644
2023-04-15T18:35:17.455Z,1010.257275
2023-04-15T18:40:17.228Z,1010.315096
2023-04-15T18:45:17.388Z,1010.359068
2023-04-15T18:50:17.298Z,1010.434032
2023-04-15T18:55:19.108Z,1010.457367
2023-04-15T19:00:17.357Z,1010.473726
2023-04-15T19:05:17.232Z,1010.518559
2023-04-15T19:10:17.418Z,1010.585689
2023-04-15T19:15:17.311Z,1010.617267
2023-04-15T19:20:17.283Z,1010.696847
2023-04-15T19:25:17.400Z,1010.738106
2023-04-15T19:30:17.599Z,1010.772508
2023-04-15T19:35:17.564Z,1010.839355
2023-04-15T19:40:17.458Z,1010.945290
2023-04-15T19:45:17.252Z,1010.978912
2023-04-15T19:50:17.368Z,1011.007871
2023-04-15T19:55:17.344Z,1011.086047
2023-04-15T20:00:17.292Z,1011.105856
2023-04-15T20:05:17.516Z,1011.158013
2023-04-15T20:10:17.445Z,1011.195858
2023-04-15T20:15:17.600Z,1011.260127
2023-04-15T20:20:17.503Z,1011.291248
2023-04-15T20:25:17.381Z,1011.337349
2023-04-15T20:30:17.368Z,1011.403741
2023-04-15T20:35:17.562Z,1011.447377
2023-04-15T20:40:17.616Z,1011.474890
2023-04-15T20:45:17.290Z,1011.506411
2023-04-15T20:50:17.293Z,1011.483813
2023-04-15T20:55:17.597Z,1011.505890
2023-04-15T21:00:17.570Z,1011.548294
2023-04-15T21:05:17.410Z,1011.567352
2023-04-15T21:10:17.661Z,1011.573913
2023-04-15T21:15:17.299Z,1011.620501
2023-04-15T21:20:17.311Z,1011.681357
2023-04-15T21:25:17.614Z,1011.722111
2023-04-15T21:30:17.556Z,1011.785484
2023-04-15T21:35:17.674Z,1011.870976
2023-04-15T21:40:17.614Z,1011.877731
2023-04-15T21:45:17.680Z,1011.986729
2023-04-15T21:50:17.842Z,1012.095077
2023-04-15T21:55:17.517Z,1012.187433
2023-04-15T22:00:17.303Z,1012.260929
2023-04-15T22:05:17.438Z,1012.291284
2023-04-15T22:10:17.478Z,1012.319402
2023-04-15T22:15:17.337Z,1012.367543
2023-04-15T22:20:17.486Z,1012.409604
2023-04-15T22:25:17.172Z,1012.480524
2023-04-15T22:30:17.344Z,1012.502338
2023-04-15T22:35:17.497Z,1012.586774
2023-04-15T22:40:17.572Z,1012.649384
2023-04-15T22:45:17.279Z,1012.716354
2023-04-15T22:50:17.416Z,1012.760975
2023-04-15T22:55:17.350Z,1012.812753
2023-04-15T23:00:17.270Z,1012.849077
2023-04-15T23:05:17.278Z,1012.896927
2023-04-15T23:10:17.393Z,1012.934943
2023-04-15T23:15:17.246Z,1013.007126
2023-04-15T23:20:17.326Z,1012.998784
2023-04-15T23:25:17.216Z,1012.947353
2023-04-15T23:30:17.288Z,1012.944080
2023-04-15T23:35:17.582Z,1012.946353
2023-04-15T23:40:17.539Z,1013.021795
2023-04-15T23:45:17.821Z,1012.985647
2023-04-15T23:50:17.260Z,1012.978922
2023-04-15T23:55:17.558Z,1013.000311
